x

Nantucket 54nm Southeast Of Nantucket (44008) Wave Buoy

11:50pm - Fri 17th Nov 2017 All times are EST. -5 hours from GMT.

  • Sig Wave height 9.2ft
  • Swell Direction
  • Peak Period 8s
  • Average Period 6s
  • Wind
    20mph, 25mph gusts
  • Sea Temp 56°f
  • Air Temp 45°f
  • Sea Pressure 1014.3mb
  • Nantucket 54nm Southeast Of Nantucket
  • Nantucket 54nm Southeast Of Nantucket

More Historic Weather Station data

Upgrade to MSW Pro to gain access to the past 30 days of data for over 8000 Wavebouys and Weather Stations around the globe.

Join

Comparision Forecast

View Surf forecast
   
Fri 11/17 11:50pm 9ft 8s 6s 20 25 mph 1014.3mb 56f 45f
10:50pm 9ft 8s 6s 20 25 mph 1013.7mb 56f 46f
9:50pm 10ft 8s 6s 25 34 mph 1014mb 56f 47f
8:50pm 9.5ft 8s 6s 25 31 mph 1013.4mb 57f 47f
7:50pm 10ft 8s 6s 27 31 mph 1013.1mb 56f 48f
6:50pm 10.5ft 8s 7s 27 34 mph 1013.1mb 56f 48f
5:50pm 10ft 8s 6s 29 36 mph 1012.5mb 56f 49f
4:50pm 9.5ft 9s 6s 29 36 mph 1011.8mb 56f 48f
3:50pm 10.5ft 10s 7s 27 36 mph 1011.2mb 56f 47f
2:50pm 11ft 9s 7s 25 31 mph 1010.7mb 56f 46f
1:50pm 10.5ft 9s 6s 25 31 mph 1010.2mb 57f 46f
12:50pm 11ft 9s 6s 29 34 mph 1010mb 57f 46f
11:50am 10.5ft 9s 6s 29 36 mph 1009.7mb 56f 45f
10:50am 11ft 8s 6s 31 38 mph 1009.4mb 56f 46f
9:50am 10ft 8s 6s 29 36 mph 1009.6mb 56f 46f
8:50am 10.5ft 8s 6s 29 38 mph 1009.2mb 56f 47f
7:50am 10ft 8s 6s 31 38 mph 1008.5mb 57f 48f
6:50am 10ft 8s 6s 29 36 mph 1007.7mb 57f 49f
5:50am 10.5ft 8s 7s 31 36 mph 1007.1mb 57f 49f
4:50am 10ft 8s 7s 31 38 mph 1006.4mb 57f 49f
3:50am 10ft 8s 6s 31 38 mph 1005.9mb 57f 50f
2:50am 9ft 8s 6s 25 36 mph 1006mb 57f 51f
1:50am 9ft 8s 6s 25 31 mph 1006.1mb 56f 52f
12:50am 10ft 7s 6s 29 34 mph 1005.5mb 56f 52f
Thu 11/16 11:50pm 9.5ft 7s 6s 29 34 mph 1005.4mb 56f 52f
10:50pm 9ft 7s 6s 25 29 mph 1005.6mb 56f 53f
9:50pm 8.5ft 6s 6s 29 36 mph 1005.5mb 56f 55f
8:50pm 7.5ft 11s 6s 22 29 mph 1005.8mb 56f 56f
7:50pm 7.5ft 12s 6s 18 25 mph 1005.9mb 56f 56f
6:50pm 7ft 11s 6s 22 27 mph 1005.5mb 56f 56f
5:50pm 7.5ft 11s 6s 25 34 mph 1004.8mb 56f 57f
4:50pm 7ft 12s 7s 22 31 mph 1005mb 56f 56f
3:50pm 7.5ft 12s 7s 18 25 mph 1004.6mb 56f 57f
2:50pm 7.5ft 12s 7s 22 29 mph 1004.6mb 56f 56f
1:50pm 7ft 12s 7s 22 25 mph 1006.2mb 56f 56f
12:50pm 7ft 12s 7s 20 25 mph 1008.2mb 56f 55f
11:50am 6.5ft 12s 7s 20 22 mph 1010.3mb 56f 54f
10:50am 7ft 13s 8s 18 22 mph 1012.5mb 56f 53f
9:50am 6ft 12s 8s 20 25 mph 1013.9mb 56f 52f
8:50am 6.5ft 13s 8s 16 18 mph 1015.5mb 56f 51f
7:50am 6.5ft 12s 8s 11 13 mph 1016.5mb 56f 51f
6:50am 6.5ft 11s 8s 11 16 mph 1016.4mb 56f 50f
5:50am 7ft 11s 8s 9 11 mph 1016.6mb 56f 50f
4:50am 6ft 11s 7s 7 9 mph 1017.2mb 56f 50f
3:50am 7ft 11s 7s  -  2 mph 1017.8mb 56f 49f
2:50am 7ft 11s 7s 4 7 mph 1018.3mb 56f 49f
1:50am 7.5ft 11s 7s 7 11 mph 1018.6mb 56f 49f
12:50am 8ft 11s 8s 11 16 mph 1018.9mb 56f 50f
Wed 11/15 11:50pm 8ft 11s 8s 9 13 mph 1019.5mb 56f 50f
10:50pm 7.5ft 11s 8s 7 11 mph 1020.5mb 56f 49f
9:50pm 7ft 11s 8s 4 9 mph 1020.9mb 56f 49f
8:50pm 5.5ft 11s 7s 11 16 mph 1020.9mb 56f 49f
7:50pm 6ft 8s 7s 11 16 mph 1021.3mb 56f 49f
6:50pm 6ft 10s 7s 16 18 mph 1021.3mb 56f 49f
5:50pm 6ft 11s 7s 11 16 mph 1021.4mb 56f 49f
4:50pm 6ft 10s 6s 16 20 mph 1021.2mb 57f 49f
3:50pm 6ft 11s 6s 13 18 mph 1021.2mb 57f 49f
2:50pm 7ft 10s 6s 16 18 mph 1020.9mb 57f 49f
1:50pm 7ft 11s 6s 13 16 mph 1021.1mb 56f 49f
12:50pm 7.5ft 11s 6s 16 20 mph 1021.4mb 56f 48f
11:50am 6ft 10s 6s 13 18 mph 1022.1mb 56f 49f
10:50am 7ft 11s 6s 16 20 mph 1023.2mb 56f 49f
9:50am 6.5ft 10s 6s 16 25 mph 1023.5mb 56f 49f
8:50am 7.5ft 10s 7s 20 25 mph 1023.4mb 56f 48f
7:50am 6.5ft 11s 7s 18 20 mph 1023.4mb 56f 49f
6:50am 6ft 11s 6s 18 20 mph 1023mb 56f 48f
5:50am 6ft 8s 6s 16 20 mph 1022.5mb 56f 49f
4:50am 6ft 9s 6s 18 22 mph 1022.3mb 56f 49f
3:50am 6.5ft 8s 6s 18 20 mph 1021.9mb 56f 48f
2:50am 6.5ft 9s 6s 18 25 mph 1021.8mb 56f 49f
1:50am 7ft 7s 6s 16 20 mph 1022.4mb 57f 49f
12:50am 7ft 8s 6s 18 20 mph 1022.3mb 56f 49f
Tue 11/14 11:50pm 7ft 9s 6s 20 27 mph 1022.3mb 56f 49f
10:50pm 7ft 7s 6s 22 27 mph 1022.2mb 56f 49f
9:50pm 7ft 7s 6s 25 27 mph 1022mb 56f 49f
8:50pm 7ft 8s 6s 22 27 mph 1022.5mb 56f 49f
7:50pm 7ft 8s 6s 22 27 mph 1022.3mb 56f 49f
6:50pm 7ft 8s 6s 22 27 mph 1022.5mb 56f 49f
5:50pm 7ft 8s 6s 22 29 mph 1022.5mb 57f 48f
4:50pm 7ft 8s 6s 22 29 mph 1022.4mb 57f 48f
3:50pm 7.5ft 8s 6s 22 27 mph 1022.1mb 57f 48f
2:50pm 7ft 8s 6s 20 25 mph 1022.2mb 57f 48f
1:50pm 7ft 7s 6s 18 22 mph 1022.3mb 57f 48f
12:50pm 7.5ft 8s 6s 18 22 mph 1022.5mb 57f 48f
11:50am 8ft 7s 6s 20 25 mph 1022.9mb 57f 49f
10:50am 7ft 7s 5s 20 25 mph 1023.3mb 57f 50f
9:50am 7ft 7s 6s 20 25 mph 1023.5mb 57f 50f
8:50am 7ft 7s 6s 18 22 mph 1023.4mb 57f 50f
7:50am 8ft 7s 6s 22 27 mph 1023.1mb 57f 50f
6:50am 7.5ft 7s 6s 22 27 mph 1022.4mb 57f 51f